Aeroporto :
LOGIN :

Iscrizione | Disclaimer

   EN    FR    IT 

 










Sommario :    VFR   VFR Marginale   IFR   IFR Intensivo   IFR Molto Intensivo
Visibilità : 
Base nubi : 
>= 8 km
>= 3000ft
5 / 8 km
1000 / 3000 ft
1500m / 5 km
500 / 1000 ft
800 / 1500m
200 / 500 ft
< 800m
< 200 ft
Simboli :   Temporali  Nebbia  Neve Forte  Precipitazioni Forti  Vento > 20 kt
SIGMETs :   Varie  Temporali  Ghiacco  Turbolenza  Onda orograficha  Ceneri Vulcaniche






- Altitudine del aeroporto : 392 ft
- Codice IATA : CDG


LFPG - Paris-Aeroport Charles De Gaulle

ULTIMO METAR :
  • 060000Z 01008KT CAVOK 03/01 Q1042 NOSIG

METARs OBSOLETI :
  • 052330Z 01011KT CAVOK 03/01 Q1041 NOSIG
  • 052300Z 01009KT CAVOK 03/01 Q1042 NOSIG
  • 052230Z 01010KT CAVOK 03/01 Q1042 NOSIG
  • 052130Z 35010KT 340V050 CAVOK 03/01 Q1042 NOSIG

TAF TAF LFPG
Valido dal 06 a 00 ore il 07 a 06 ore UTC


052300Z 0600/0706 02010KT CAVOK TX06/0614Z TN01/0606Z
PROB40
TEMPO 0603/0609 BKN007
PROB30
TEMPO 0703/0706 BKN005
ATIS : +33 1 48 62 10 92



MetMap, La meteo Aeronautica in un colpo d'occhio ! - Copyright ORBIFLY Dicembre 2007 - Disclaimer

ORBIFLY MET'MAP TEAM :

Programmazione e sviluppo : Alexandra Zaïnal
Concezione : Baudouin d'Aumeries
Supporto tecnico e logistico : Manuel Goepfert
Aiuto : Marc-Olivier Méhu
Aiuto per la traduzione : Arnaldo La Scala




FONTI E CREDITI :

   NOAA